Furenas — OZ2085 — position and weather

sailwx.info

Track history (hours):
 
Tides and Currents Weather Stations Pressure Air Temp Water Temp Dewpoint Dewpoint Depression Visibility Wind Speed Wind Dir Waves Ship Positions

Furenas

Last reported at 2015-Jul-05 14:33 UTC. Time now 2015-Jul-05 14:58 UTC.
Position N 56°02' E 012°40'.

Length 137 m; draft 6.3 m.

Type: Tanker. MMSI: 231734000.

Date/timePositionNaut miles runAvg speedWind from/ knotsBaromVisibWave heightAir tempDewpointWater temp
2015-Jul-05 14:33N 56°02' E 012°40'1211.3
2015-Jul-05 13:30N 56°10' E 012°24'1111.9
2015-Jul-05 12:33N 56°21' E 012°19'1211.9
2015-Jul-05 11:33N 56°32' E 012°14'1212.4
2015-Jul-05 10:33N 56°44' E 012°09'1212.1
2015-Jul-05 09:33N 56°56' E 012°04'1212.1
2015-Jul-05 08:33N 57°08' E 011°59'1211.7
2015-Jul-05 07:33N 57°18' E 011°47'1211.7
2015-Jul-05 06:33N 57°28' E 011°37'7 7.1
2015-Jul-05 05:31N 57°35' E 011°41'0 0.0
2015-Jul-05 04:31N 57°35' E 011°41'0 0.1
2015-Jul-05 03:31N 57°35' E 011°41'8 8.7
2015-Jul-05 02:33N 57°37' E 011°25'1211.9
2015-Jul-05 01:33N 57°43' E 011°06'1211.9
2015-Jul-05 00:33N 57°48' E 010°45'1212.2
2015-Jul-04 23:33N 57°49' E 010°23'1212.1
2015-Jul-04 22:32N 57°44' E 010°02'1211.8
2015-Jul-04 21:33N 57°38' E 009°43'1211.9
2015-Jul-04 20:33N 57°32' E 009°23'1411.8
2015-Jul-04 19:20N 57°26' E 008°60'11511.7
2015-Jul-04 09:31N 55°53' E 006°55'1212.1
2015-Jul-04 08:30N 55°43' E 006°43'1412.1
2015-Jul-04 07:22N 55°31' E 006°31'9311.9
2015-Jul-03 23:33N 54°10' E 005°11'1211.9
2015-Jul-03 22:33N 53°59' E 005°04'1212.2
2015-Jul-03 21:33N 53°48' E 004°57'1312.6
2015-Jul-03 20:33N 53°36' E 004°50'1312.5
2015-Jul-03 19:33N 53°24' E 004°42'1313.1
2015-Jul-03 18:33N 53°12' E 004°33'1313.2
2015-Jul-03 17:33N 53°01' E 004°22'1313.4
2015-Jul-03 16:33N 52°49' E 004°12'1313.4
2015-Jul-03 15:33N 52°39' E 003°57'1313.2
2015-Jul-03 14:33N 52°30' E 003°41'1512.8
2015-Jul-03 13:21N 52°16' E 003°29'2212.2
2015-Jul-03 11:32N 51°54' E 003°23'1510.0
2015-Jul-03 10:03N 51°40' E 003°19'611.6
2015-Jul-03 09:31N 51°34' E 003°24'1010.7
2015-Jul-03 08:33N 51°26' E 003°34'1110.9
2015-Jul-03 07:34N 51°21' E 003°50'1010.5
2015-Jul-03 06:34N 51°22' E 004°06'7 7.0
2015-Jul-03 05:33N 51°21' E 004°17'0 0.2
2015-Jul-03 04:33N 51°21' E 004°17'0 0.5
2015-Jul-03 03:33N 51°20' E 004°18'3 3.3
2015-Jul-03 02:33N 51°17' E 004°20'0 0.0
2015-Jul-03 01:23N 51°17' E 004°20'0 0.0
2015-Jul-03 00:23N 51°17' E 004°20'0 0.0
2015-Jul-02 23:23N 51°17' E 004°20'0 0.0
2015-Jul-02 22:29N 51°17' E 004°20'0 0.0
2015-Jul-02 03:33N 51°17' E 004°20'2 2.2
2015-Jul-02 02:34N 51°19' E 004°19'2 1.6
2015-Jul-02 01:34N 51°21' E 004°17'0 0.0
2015-Jul-02 00:33N 51°21' E 004°17'0 0.0
2015-Jul-01 23:34N 51°21' E 004°17'5 5.2
2015-Jul-01 22:33N 51°23' E 004°10'9 9.3
2015-Jul-01 21:33N 51°22' E 003°55'1110.9
2015-Jul-01 20:34N 51°26' E 003°39'9 9.3
2015-Jul-01 19:33N 51°31' E 003°26'1210.9
2015-Jul-01 18:27N 51°42' E 003°17'59 9.9
2015-Jul-01 12:28N 52°39' E 003°34'2311.9
2015-Jul-01 10:32N 52°57' E 003°59'1212.6
2015-Jul-01 09:33N 53°05' E 004°15'1212.1
2015-Jul-01 08:33N 53°14' E 004°27'1212.4
2015-Jul-01 07:33N 53°26' E 004°33'1212.4
2015-Jul-01 06:33N 53°38' E 004°40'1312.5
2015-Jul-01 05:32N 53°49' E 004°48'1212.1
2015-Jul-01 04:33N 54°01' E 004°55'1311.9
2015-Jul-01 03:29N 54°12' E 005°06'1212.5
2015-Jul-01 02:33N 54°21' E 005°17'1312.7
2015-Jul-01 01:32N 54°32' E 005°29'1312.6
2015-Jul-01 00:33N 54°43' E 005°41'1312.4
2015-Jun-30 23:31N 54°54' E 005°52'1312.5
2015-Jun-30 22:30N 55°05' E 006°03'2912.3
2015-Jun-30 20:09N 55°30' E 006°29'3612.3
2015-Jun-30 17:11N 56°01' E 007°02'20012.0
2015-Jun-30 00:29N 58°48' E 010°27'1112.1
2015-Jun-29 23:33N 58°59' E 010°32'1111.0
2015-Jun-29 22:33N 59°10' E 010°37'1110.5
2015-Jun-29 21:33N 59°20' E 010°31'0 0.1
2015-Jun-29 20:33N 59°20' E 010°31'0 0.0
2015-Jun-28 14:33N 59°20' E 010°31'1 0.8
2015-Jun-28 13:32N 59°20' E 010°30'0 0.0
2015-Jun-28 12:32N 59°20' E 010°30'0 0.0
2015-Jun-28 11:32N 59°20' E 010°30'0 0.0
2015-Jun-28 10:32N 59°20' E 010°30'0 0.0
2015-Jun-28 09:32N 59°21' E 010°30'0 0.0
2015-Jun-28 08:32N 59°20' E 010°31'0 0.0
2015-Jun-28 07:32N 59°20' E 010°31'0 0.1
2015-Jun-28 06:32N 59°20' E 010°30'0 0.0
2015-Jun-28 05:32N 59°20' E 010°31'0 0.0
2015-Jun-28 04:32N 59°20' E 010°31'0 0.0
2015-Jun-28 03:32N 59°20' E 010°31'0 0.0
2015-Jun-28 02:32N 59°20' E 010°31'0 0.0
2015-Jun-28 01:32N 59°20' E 010°31'0 0.0
2015-Jun-28 00:32N 59°20' E 010°31'0 0.1
2015-Jun-27 23:32N 59°20' E 010°31'0 0.0
2015-Jun-27 22:32N 59°20' E 010°31'0 0.0
2015-Jun-27 21:32N 59°20' E 010°30'0 0.0
2015-Jun-27 20:32N 59°20' E 010°30'0 0.0
2015-Jun-27 19:32N 59°20' E 010°30'0 0.0
2015-Jun-27 18:32N 59°20' E 010°30'0 0.0
2015-Jun-27 17:32N 59°20' E 010°31'0 0.1
2015-Jun-27 16:32N 59°20' E 010°30'0 0.0
2015-Jun-27 15:31N 59°20' E 010°30'0 0.0
2015-Jun-27 14:31N 59°21' E 010°30'0 0.0
2015-Jun-27 13:31N 59°20' E 010°30'0 0.0
2015-Jun-27 12:31N 59°20' E 010°30'0 0.0
2015-Jun-27 11:31N 59°20' E 010°30'0 0.0
2015-Jun-27 10:31N 59°21' E 010°30'0 0.0
2015-Jun-27 09:31N 59°21' E 010°30'0 0.0
2015-Jun-27 08:31N 59°20' E 010°30'0 0.0
2015-Jun-27 07:31N 59°20' E 010°30'0 0.0
2015-Jun-27 06:31N 59°20' E 010°30'0 0.1
2015-Jun-27 05:31N 59°20' E 010°31'0 0.1
2015-Jun-27 04:31N 59°20' E 010°31'0 0.0
2015-Jun-27 03:31N 59°20' E 010°31'0 0.1
2015-Jun-27 02:31N 59°20' E 010°30'5 5.5
2015-Jun-27 01:33N 59°26' E 010°33'1312.1
2015-Jun-27 00:29N 59°38' E 010°37'1 0.0
2015-Jun-25 15:15N 59°40' E 010°37'  
Track history (hours):
 
Tides and Currents Weather Stations Pressure Air Temp Water Temp Dewpoint Dewpoint Depression Visibility Wind Speed Wind Dir Waves Ship Positions

Furenas

Last reported at 2015-Jul-05 14:33 UTC. Time now 2015-Jul-05 14:58 UTC.
Position N 56°02' E 012°40'.

Length 137 m; draft 6.3 m.

Type: Tanker. MMSI: 231734000.

Date/timePositionNaut miles runAvg speedWind from/ knotsBaromVisibWave heightAir tempDewpointWater temp
2015-Jul-05 14:33N 56°02' E 012°40'1211.3
2015-Jul-05 13:30N 56°10' E 012°24'1111.9
2015-Jul-05 12:33N 56°21' E 012°19'1211.9
2015-Jul-05 11:33N 56°32' E 012°14'1212.4
2015-Jul-05 10:33N 56°44' E 012°09'1212.1
2015-Jul-05 09:33N 56°56' E 012°04'1212.1
2015-Jul-05 08:33N 57°08' E 011°59'1211.7
2015-Jul-05 07:33N 57°18' E 011°47'1211.7
2015-Jul-05 06:33N 57°28' E 011°37'7 7.1
2015-Jul-05 05:31N 57°35' E 011°41'0 0.0
2015-Jul-05 04:31N 57°35' E 011°41'0 0.1
2015-Jul-05 03:31N 57°35' E 011°41'8 8.7
2015-Jul-05 02:33N 57°37' E 011°25'1211.9
2015-Jul-05 01:33N 57°43' E 011°06'1211.9
2015-Jul-05 00:33N 57°48' E 010°45'1212.2
2015-Jul-04 23:33N 57°49' E 010°23'1212.1
2015-Jul-04 22:32N 57°44' E 010°02'1211.8
2015-Jul-04 21:33N 57°38' E 009°43'1211.9
2015-Jul-04 20:33N 57°32' E 009°23'1411.8
2015-Jul-04 19:20N 57°26' E 008°60'11511.7
2015-Jul-04 09:31N 55°53' E 006°55'1212.1
2015-Jul-04 08:30N 55°43' E 006°43'1412.1
2015-Jul-04 07:22N 55°31' E 006°31'9311.9
2015-Jul-03 23:33N 54°10' E 005°11'1211.9
2015-Jul-03 22:33N 53°59' E 005°04'1212.2
2015-Jul-03 21:33N 53°48' E 004°57'1312.6
2015-Jul-03 20:33N 53°36' E 004°50'1312.5
2015-Jul-03 19:33N 53°24' E 004°42'1313.1
2015-Jul-03 18:33N 53°12' E 004°33'1313.2
2015-Jul-03 17:33N 53°01' E 004°22'1313.4
2015-Jul-03 16:33N 52°49' E 004°12'1313.4
2015-Jul-03 15:33N 52°39' E 003°57'1313.2
2015-Jul-03 14:33N 52°30' E 003°41'1512.8
2015-Jul-03 13:21N 52°16' E 003°29'2212.2
2015-Jul-03 11:32N 51°54' E 003°23'1510.0
2015-Jul-03 10:03N 51°40' E 003°19'611.6
2015-Jul-03 09:31N 51°34' E 003°24'1010.7
2015-Jul-03 08:33N 51°26' E 003°34'1110.9
2015-Jul-03 07:34N 51°21' E 003°50'1010.5
2015-Jul-03 06:34N 51°22' E 004°06'7 7.0
2015-Jul-03 05:33N 51°21' E 004°17'0 0.2
2015-Jul-03 04:33N 51°21' E 004°17'0 0.5
2015-Jul-03 03:33N 51°20' E 004°18'3 3.3
2015-Jul-03 02:33N 51°17' E 004°20'0 0.0
2015-Jul-03 01:23N 51°17' E 004°20'0 0.0
2015-Jul-03 00:23N 51°17' E 004°20'0 0.0
2015-Jul-02 23:23N 51°17' E 004°20'0 0.0
2015-Jul-02 22:29N 51°17' E 004°20'0 0.0
2015-Jul-02 03:33N 51°17' E 004°20'2 2.2
2015-Jul-02 02:34N 51°19' E 004°19'2 1.6
2015-Jul-02 01:34N 51°21' E 004°17'0 0.0
2015-Jul-02 00:33N 51°21' E 004°17'0 0.0
2015-Jul-01 23:34N 51°21' E 004°17'5 5.2
2015-Jul-01 22:33N 51°23' E 004°10'9 9.3
2015-Jul-01 21:33N 51°22' E 003°55'1110.9
2015-Jul-01 20:34N 51°26' E 003°39'9 9.3
2015-Jul-01 19:33N 51°31' E 003°26'1210.9
2015-Jul-01 18:27N 51°42' E 003°17'59 9.9
2015-Jul-01 12:28N 52°39' E 003°34'2311.9
2015-Jul-01 10:32N 52°57' E 003°59'1212.6
2015-Jul-01 09:33N 53°05' E 004°15'1212.1
2015-Jul-01 08:33N 53°14' E 004°27'1212.4
2015-Jul-01 07:33N 53°26' E 004°33'1212.4
2015-Jul-01 06:33N 53°38' E 004°40'1312.5
2015-Jul-01 05:32N 53°49' E 004°48'1212.1
2015-Jul-01 04:33N 54°01' E 004°55'1311.9
2015-Jul-01 03:29N 54°12' E 005°06'1212.5
2015-Jul-01 02:33N 54°21' E 005°17'1312.7
2015-Jul-01 01:32N 54°32' E 005°29'1312.6
2015-Jul-01 00:33N 54°43' E 005°41'1312.4
2015-Jun-30 23:31N 54°54' E 005°52'1312.5
2015-Jun-30 22:30N 55°05' E 006°03'2912.3
2015-Jun-30 20:09N 55°30' E 006°29'3612.3
2015-Jun-30 17:11N 56°01' E 007°02'20012.0
2015-Jun-30 00:29N 58°48' E 010°27'1112.1
2015-Jun-29 23:33N 58°59' E 010°32'1111.0
2015-Jun-29 22:33N 59°10' E 010°37'1110.5
2015-Jun-29 21:33N 59°20' E 010°31'0 0.1
2015-Jun-29 20:33N 59°20' E 010°31'0 0.0
2015-Jun-28 14:33N 59°20' E 010°31'1 0.8
2015-Jun-28 13:32N 59°20' E 010°30'0 0.0
2015-Jun-28 12:32N 59°20' E 010°30'0 0.0
2015-Jun-28 11:32N 59°20' E 010°30'0 0.0
2015-Jun-28 10:32N 59°20' E 010°30'0 0.0
2015-Jun-28 09:32N 59°21' E 010°30'0 0.0
2015-Jun-28 08:32N 59°20' E 010°31'0 0.0
2015-Jun-28 07:32N 59°20' E 010°31'0 0.1
2015-Jun-28 06:32N 59°20' E 010°30'0 0.0
2015-Jun-28 05:32N 59°20' E 010°31'0 0.0
2015-Jun-28 04:32N 59°20' E 010°31'0 0.0
2015-Jun-28 03:32N 59°20' E 010°31'0 0.0
2015-Jun-28 02:32N 59°20' E 010°31'0 0.0
2015-Jun-28 01:32N 59°20' E 010°31'0 0.0
2015-Jun-28 00:32N 59°20' E 010°31'0 0.1
2015-Jun-27 23:32N 59°20' E 010°31'0 0.0
2015-Jun-27 22:32N 59°20' E 010°31'0 0.0
2015-Jun-27 21:32N 59°20' E 010°30'0 0.0
2015-Jun-27 20:32N 59°20' E 010°30'0 0.0
2015-Jun-27 19:32N 59°20' E 010°30'0 0.0
2015-Jun-27 18:32N 59°20' E 010°30'0 0.0
2015-Jun-27 17:32N 59°20' E 010°31'0 0.1
2015-Jun-27 16:32N 59°20' E 010°30'0 0.0
2015-Jun-27 15:31N 59°20' E 010°30'0 0.0
2015-Jun-27 14:31N 59°21' E 010°30'0 0.0
2015-Jun-27 13:31N 59°20' E 010°30'0 0.0
2015-Jun-27 12:31N 59°20' E 010°30'0 0.0
2015-Jun-27 11:31N 59°20' E 010°30'0 0.0
2015-Jun-27 10:31N 59°21' E 010°30'0 0.0
2015-Jun-27 09:31N 59°21' E 010°30'0 0.0
2015-Jun-27 08:31N 59°20' E 010°30'0 0.0
2015-Jun-27 07:31N 59°20' E 010°30'0 0.0
2015-Jun-27 06:31N 59°20' E 010°30'0 0.1
2015-Jun-27 05:31N 59°20' E 010°31'0 0.1
2015-Jun-27 04:31N 59°20' E 010°31'0 0.0
2015-Jun-27 03:31N 59°20' E 010°31'0 0.1
2015-Jun-27 02:31N 59°20' E 010°30'5 5.5
2015-Jun-27 01:33N 59°26' E 010°33'1312.1
2015-Jun-27 00:29N 59°38' E 010°37'1 0.0
2015-Jun-25 15:15N 59°40' E 010°37'  

Dump ship's entire track history